Time;durP1;ratioP1;P1;durP2;ratioP2;P2;SDS_P1;SDS_P2;PMS_P1;PMS_P2;Temp;Humidity;BMP_temperature;BMP_pressure;BME280_temperature;BME280_humidity;BME280_pressure;Samples;Min_cycle;Max_cycle;Signal;HPM_P1;HPM_P2
2023/12/09 00:31:00;;;;;;;35.22;17.42;;;;;;;;;;6994765;23;20042;-96
2023/12/09 00:37:33;;;;;;;30.67;17.47;;;;;;;;;;6001680;29;20063;-96
2023/12/09 04:07:06;;;;;;;59.38;25.83;;;;;;;;;;6013554;29;20061;-96
2023/12/09 04:10:11;;;;;;;64.00;25.35;;;;;;;;;;6015537;29;20029;-96
2023/12/09 04:13:38;;;;;;;60.60;23.90;;;;;;;;;;6004331;29;20034;-96
2023/12/09 05:05:28;;;;;;;63.47;25.33;;;;;;;;;;7380876;23;20047;-96
2023/12/09 05:12:31;;;;;;;61.45;24.35;;;;;;;;;;6800468;23;20247;31
2023/12/09 06:00:11;;;;;;;58.47;23.48;;;;;;;;;;6309674;28;20049;-96
2023/12/09 06:03:34;;;;;;;53.53;23.35;;;;;;;;;;6293928;28;20044;-96
2023/12/09 06:06:36;;;;;;;57.65;22.83;;;;;;;;;;6325047;28;20117;-96
2023/12/09 06:09:38;;;;;;;62.15;22.67;;;;;;;;;;6323853;28;20040;-96
2023/12/09 06:12:43;;;;;;;62.97;22.67;;;;;;;;;;6309386;28;20044;-93
2023/12/09 06:16:05;;;;;;;;;;;;;;;;;;6307975;28;20036;-96
2023/12/09 06:19:07;;;;;;;52.72;20.77;;;;;;;;;;6317764;28;19926;-96
2023/12/09 06:22:09;;;;;;;53.25;21.38;;;;;;;;;;6314468;28;20060;-96
2023/12/09 06:25:11;;;;;;;62.35;22.50;;;;;;;;;;6310104;28;20044;-96
2023/12/09 06:28:15;;;;;;;57.33;21.50;;;;;;;;;;6311995;28;20486;-96
2023/12/09 06:31:17;;;;;;;55.85;22.17;;;;;;;;;;6323967;28;20071;-96
2023/12/09 06:34:19;;;;;;;54.60;21.27;;;;;;;;;;6330833;28;20044;-95
2023/12/09 06:37:21;;;;;;;60.50;22.13;;;;;;;;;;6330303;28;20048;-96
2023/12/09 06:40:23;;;;;;;57.28;21.95;;;;;;;;;;6327470;28;20056;-96
2023/12/09 06:43:27;;;;;;;52.00;21.38;;;;;;;;;;6328644;28;20785;-96
2023/12/09 06:46:32;;;;;;;51.88;22.15;;;;;;;;;;6326352;28;20048;-96
2023/12/09 06:49:34;;;;;;;60.58;23.17;;;;;;;;;;6320618;28;20052;-96
2023/12/09 06:52:37;;;;;;;51.00;21.25;;;;;;;;;;6327180;28;20163;-95
2023/12/09 06:55:39;;;;;;;54.38;21.73;;;;;;;;;;6327746;28;20051;-96
2023/12/09 06:58:43;;;;;;;48.55;21.67;;;;;;;;;;6319551;28;20047;-96
2023/12/09 07:01:48;;;;;;;52.25;21.25;;;;;;;;;;6330396;28;20051;-95
2023/12/09 07:04:50;;;;;;;50.17;20.83;;;;;;;;;;6323620;28;20045;-96
2023/12/09 07:07:52;;;;;;;50.30;20.30;;;;;;;;;;6312374;28;20826;-96
2023/12/09 07:10:56;;;;;;;47.78;20.65;;;;;;;;;;6309575;28;20479;-96
2023/12/09 07:14:00;;;;;;;44.83;21.88;;;;;;;;;;6310071;28;20873;-96
2023/12/09 07:17:02;;;;;;;47.55;20.98;;;;;;;;;;6303907;28;20055;-96
2023/12/09 07:20:06;;;;;;;46.65;20.20;;;;;;;;;;6309038;28;20044;-96
2023/12/09 07:23:08;;;;;;;46.78;19.38;;;;;;;;;;6307367;28;20045;-96
2023/12/09 07:26:12;;;;;;;50.78;22.05;;;;;;;;;;6309075;28;20053;-96
2023/12/09 07:29:15;;;;;;;50.40;20.07;;;;;;;;;;6314616;28;20040;-96
2023/12/09 07:32:17;;;;;;;45.23;20.83;;;;;;;;;;6318556;28;20453;-95
2023/12/09 07:35:19;;;;;;;45.10;19.48;;;;;;;;;;6308256;28;20040;-96
2023/12/09 07:38:21;;;;;;;47.90;20.52;;;;;;;;;;6302493;28;20475;-96
2023/12/09 07:41:23;;;;;;;49.10;21.33;;;;;;;;;;6310419;28;20078;-96
2023/12/09 07:44:27;;;;;;;47.45;20.60;;;;;;;;;;6321592;28;20044;-96
2023/12/09 07:47:29;;;;;;;48.80;21.20;;;;;;;;;;6306464;28;20055;-96
2023/12/09 07:50:32;;;;;;;44.97;20.85;;;;;;;;;;6314428;28;20048;-96
2023/12/09 07:53:35;;;;;;;51.22;21.40;;;;;;;;;;6308228;28;20048;-96
2023/12/09 07:56:37;;;;;;;50.33;21.52;;;;;;;;;;6311343;28;20041;-96
2023/12/09 08:02:57;;;;;;;46.35;20.13;;;;;;;;;;6279847;28;20107;-96
2023/12/09 08:05:59;;;;;;;41.03;20.15;;;;;;;;;;6309996;28;20054;-96
2023/12/09 08:09:01;;;;;;;49.08;21.10;;;;;;;;;;6302322;28;20109;-96
2023/12/09 08:12:04;;;;;;;47.00;20.35;;;;;;;;;;6308525;28;20053;-95
2023/12/09 08:18:26;;;;;;;43.78;20.83;;;;;;;;;;6281304;28;20051;-96
2023/12/09 08:21:28;;;;;;;44.85;21.08;;;;;;;;;;6301206;28;20048;-96
2023/12/09 08:24:30;;;;;;;46.47;21.08;;;;;;;;;;6293572;28;20068;-95
2023/12/09 08:27:32;;;;;;;46.85;20.65;;;;;;;;;;6294399;28;20060;-96
2023/12/09 08:30:35;;;;;;;46.05;19.65;;;;;;;;;;6296570;28;20045;-96
2023/12/09 08:33:38;;;;;;;36.00;15.27;;;;;;;;;;6294348;28;20179;-95
2023/12/09 08:39:58;;;;;;;43.15;20.25;;;;;;;;;;6279572;28;20081;-95
2023/12/09 08:43:00;;;;;;;40.08;19.10;;;;;;;;;;6304572;28;20177;-96
2023/12/09 08:46:05;;;;;;;42.60;20.58;;;;;;;;;;6311037;28;20628;-96
2023/12/09 08:49:27;;;;;;;41.60;20.02;;;;;;;;;;6306358;28;20450;-96
2023/12/09 08:52:29;;;;;;;49.67;21.27;;;;;;;;;;6306594;28;20052;-96
2023/12/09 08:55:32;;;;;;;44.00;19.58;;;;;;;;;;6307349;28;20047;-96
2023/12/09 08:58:34;;;;;;;42.67;19.42;;;;;;;;;;6299291;28;20297;-96
2023/12/09 09:01:38;;;;;;;46.42;20.52;;;;;;;;;;6303632;28;20051;-96
2023/12/09 09:04:42;;;;;;;38.33;18.83;;;;;;;;;;6304582;28;20501;-95
2023/12/09 09:07:45;;;;;;;42.70;19.70;;;;;;;;;;6310047;28;20048;-96
2023/12/09 09:10:47;;;;;;;40.70;19.52;;;;;;;;;;6307567;28;20482;-93
2023/12/09 09:13:49;;;;;;;37.97;18.67;;;;;;;;;;6306675;28;20055;-96
2023/12/09 09:16:53;;;;;;;41.35;18.27;;;;;;;;;;6302107;28;20040;-96
2023/12/09 09:19:55;;;;;;;43.75;20.85;;;;;;;;;;6303072;28;20123;-95
2023/12/09 09:22:57;;;;;;;37.20;18.52;;;;;;;;;;6307361;28;20048;-96
2023/12/09 09:26:00;;;;;;;38.40;19.00;;;;;;;;;;6307945;28;20087;-95
2023/12/09 09:29:03;;;;;;;42.08;19.58;;;;;;;;;;6306960;28;20055;-96
2023/12/09 09:32:08;;;;;;;42.05;18.67;;;;;;;;;;6313974;28;20048;-96
2023/12/09 09:35:11;;;;;;;39.60;18.80;;;;;;;;;;6309582;28;20105;-96
2023/12/09 09:38:16;;;;;;;39.17;19.15;;;;;;;;;;6302887;28;20059;-95
2023/12/09 09:41:23;;;;;;;36.75;19.75;;;;;;;;;;6304330;28;20048;-95
2023/12/09 09:44:29;;;;;;;37.97;17.65;;;;;;;;;;6304654;28;20406;-94
2023/12/09 09:47:36;;;;;;;41.20;19.80;;;;;;;;;;6311159;28;20045;-96
2023/12/09 09:57:23;;;;;;;36.65;18.45;;;;;;;;;;6281335;28;20052;-96
2023/12/09 10:00:28;;;;;;;37.92;18.90;;;;;;;;;;6285575;28;20063;-96
2023/12/09 10:03:40;;;;;;;40.72;19.67;;;;;;;;;;6280204;28;20056;-94
2023/12/09 10:06:43;;;;;;;46.22;20.20;;;;;;;;;;6298167;28;20044;-96
2023/12/09 10:09:45;;;;;;;41.63;20.27;;;;;;;;;;6280461;28;20370;-95
2023/12/09 10:12:48;;;;;;;40.15;20.30;;;;;;;;;;6296902;28;20121;-96
2023/12/09 10:15:51;;;;;;;39.83;19.67;;;;;;;;;;6300640;28;20445;-96
2023/12/09 10:22:10;;;;;;;36.42;19.15;;;;;;;;;;6301518;28;20521;-96
2023/12/09 10:25:21;;;;;;;41.22;19.48;;;;;;;;;;6304148;28;20048;-96
2023/12/09 10:28:24;;;;;;;39.47;20.08;;;;;;;;;;6306465;28;20052;-96
2023/12/09 10:31:27;;;;;;;38.58;20.40;;;;;;;;;;6303392;28;20067;-96
2023/12/09 10:34:33;;;;;;;41.43;20.17;;;;;;;;;;6307205;28;20048;-96
2023/12/09 10:37:35;;;;;;;41.47;21.05;;;;;;;;;;6300103;28;20486;-96
2023/12/09 10:40:38;;;;;;;40.45;20.75;;;;;;;;;;6300636;28;20400;-96
2023/12/09 10:43:40;;;;;;;43.10;21.25;;;;;;;;;;6306133;28;20048;-96
2023/12/09 10:46:42;;;;;;;43.50;20.40;;;;;;;;;;6308981;28;20044;-93
2023/12/09 10:49:47;;;;;;;43.92;22.67;;;;;;;;;;6312247;28;20052;-96
2023/12/09 10:52:50;;;;;;;37.97;21.60;;;;;;;;;;6308438;28;20044;-96
2023/12/09 10:55:53;;;;;;;43.25;21.00;;;;;;;;;;6308173;28;20044;-96
2023/12/09 10:58:57;;;;;;;43.80;21.98;;;;;;;;;;6308911;28;20044;-96
2023/12/09 11:02:00;;;;;;;43.00;22.23;;;;;;;;;;6304163;28;20059;-96
2023/12/09 11:05:05;;;;;;;30.75;15.80;;;;;;;;;;6309253;28;20417;-96
2023/12/09 11:08:10;;;;;;;39.92;21.52;;;;;;;;;;6317338;28;20056;-96
2023/12/09 11:11:19;;;;;;;43.15;21.23;;;;;;;;;;6285685;28;20051;-96
2023/12/09 11:17:44;;;;;;;39.92;21.63;;;;;;;;;;6315605;28;20044;-96
2023/12/09 11:20:52;;;;;;;42.20;22.08;;;;;;;;;;6321212;28;20051;-96
2023/12/09 11:23:58;;;;;;;41.00;21.40;;;;;;;;;;6304516;28;20056;-96
2023/12/09 11:27:01;;;;;;;40.92;22.05;;;;;;;;;;6237874;28;20050;-96
2023/12/09 11:30:06;;;;;;;42.85;20.42;;;;;;;;;;6305159;28;20049;-96
2023/12/09 11:33:09;;;;;;;40.58;20.63;;;;;;;;;;6279728;28;20048;-96
2023/12/09 11:39:30;;;;;;;44.63;22.90;;;;;;;;;;6258918;28;20045;-96
2023/12/09 11:42:32;;;;;;;46.97;24.23;;;;;;;;;;6295689;28;20128;-96
2023/12/09 11:45:36;;;;;;;45.22;22.48;;;;;;;;;;6295322;28;20807;-95
2023/12/09 11:48:39;;;;;;;42.78;21.90;;;;;;;;;;6307018;28;20493;-93
2023/12/09 11:58:17;;;;;;;51.28;23.80;;;;;;;;;;6305630;28;20501;-96
2023/12/09 12:01:20;;;;;;;44.60;21.70;;;;;;;;;;6307773;28;20713;-94
2023/12/09 12:04:23;;;;;;;42.10;22.40;;;;;;;;;;6310527;28;20044;-96
2023/12/09 12:07:27;;;;;;;40.13;20.30;;;;;;;;;;6314799;28;20556;-95
2023/12/09 12:10:31;;;;;;;40.03;20.70;;;;;;;;;;6308762;28;20519;-96
2023/12/09 12:13:34;;;;;;;40.33;21.23;;;;;;;;;;6311365;28;20054;-96
2023/12/09 12:16:38;;;;;;;38.03;19.90;;;;;;;;;;6320733;28;20139;-96
2023/12/09 12:19:47;;;;;;;39.13;21.50;;;;;;;;;;6316508;28;20048;-96
2023/12/09 12:22:51;;;;;;;39.50;21.73;;;;;;;;;;6312830;28;20133;-96
2023/12/09 12:25:54;;;;;;;45.38;22.27;;;;;;;;;;6308714;28;20036;-96
2023/12/09 12:28:57;;;;;;;42.03;21.55;;;;;;;;;;6307182;28;20040;-96
2023/12/09 12:32:01;;;;;;;39.47;20.85;;;;;;;;;;6320342;28;20043;-96
2023/12/09 12:35:06;;;;;;;40.10;21.33;;;;;;;;;;6307377;28;20457;-96
2023/12/09 12:41:49;;;;;;;35.88;19.38;;;;;;;;;;6304985;28;20046;-92
2023/12/09 12:44:53;;;;;;;36.10;20.77;;;;;;;;;;6312842;28;20044;-96
2023/12/09 12:47:58;;;;;;;36.58;20.52;;;;;;;;;;6304077;28;20048;-96
2023/12/09 12:51:01;;;;;;;37.35;20.42;;;;;;;;;;6308898;28;20063;-96
2023/12/09 12:57:22;;;;;;;33.45;19.48;;;;;;;;;;6289978;28;20410;-96
2023/12/09 13:07:32;;;;;;;37.63;20.15;;;;;;;;;;6269123;28;20053;-96
2023/12/09 13:13:57;;;;;;;35.38;20.50;;;;;;;;;;6294481;28;20056;-95
2023/12/09 13:17:04;;;;;;;35.80;20.15;;;;;;;;;;6276039;28;20048;-96
2023/12/09 13:20:13;;;;;;;33.70;19.50;;;;;;;;;;6294077;28;20060;-96
2023/12/09 13:23:16;;;;;;;34.08;18.92;;;;;;;;;;6284246;28;20059;-96
2023/12/09 13:26:22;;;;;;;33.33;19.80;;;;;;;;;;6317043;28;20054;-96
2023/12/09 13:29:25;;;;;;;36.10;19.17;;;;;;;;;;6276386;28;20048;-96
2023/12/09 13:32:27;;;;;;;38.08;20.33;;;;;;;;;;6307276;28;20139;-96
2023/12/09 13:35:33;;;;;;;33.58;18.67;;;;;;;;;;6309530;28;20103;-96
2023/12/09 13:38:56;;;;;;;32.58;18.60;;;;;;;;;;6311449;28;20127;-96
2023/12/09 13:42:00;;;;;;;36.55;19.25;;;;;;;;;;6316614;28;20082;-95
2023/12/09 13:45:07;;;;;;;;;;;;;;;;;;6323549;28;20048;-96
2023/12/09 13:48:10;;;;;;;36.63;20.27;;;;;;;;;;6312879;28;19921;-96
2023/12/09 13:51:15;;;;;;;34.22;19.52;;;;;;;;;;6295572;28;20186;-96
2023/12/09 13:54:22;;;;;;;35.45;18.95;;;;;;;;;;6305558;28;20398;-96
2023/12/09 13:57:26;;;;;;;36.58;20.25;;;;;;;;;;6295875;28;20044;-93
2023/12/09 14:00:49;;;;;;;35.83;19.48;;;;;;;;;;6305905;28;20048;-96
2023/12/09 14:03:55;;;;;;;37.03;19.92;;;;;;;;;;6305620;28;20060;-96
2023/12/09 14:07:03;;;;;;;36.33;19.85;;;;;;;;;;6315783;28;20123;-96
2023/12/09 14:10:25;;;;;;;36.30;19.52;;;;;;;;;;6306999;28;20070;-96
2023/12/09 14:13:29;;;;;;;37.28;19.58;;;;;;;;;;6292393;28;20048;-95
2023/12/09 14:16:53;;;;;;;35.45;19.17;;;;;;;;;;6241390;28;20086;-96
2023/12/09 14:19:56;;;;;;;36.05;19.90;;;;;;;;;;6294594;28;20083;-96
2023/12/09 14:22:58;;;;;;;33.42;19.67;;;;;;;;;;6295677;28;20056;-96
2023/12/09 14:26:01;;;;;;;35.47;19.65;;;;;;;;;;6293076;28;20095;-96
2023/12/09 14:29:08;;;;;;;33.58;18.88;;;;;;;;;;6302737;28;20087;-96
2023/12/09 14:39:09;;;;;;;38.40;19.58;;;;;;;;;;6280046;28;20514;-94
2023/12/09 14:42:15;;;;;;;37.42;20.33;;;;;;;;;;6279815;28;20495;-95
2023/12/09 14:48:53;;;;;;;36.63;19.92;;;;;;;;;;6308555;28;20049;-96
2023/12/09 14:51:56;;;;;;;37.40;19.25;;;;;;;;;;6290494;28;20045;-96
2023/12/09 14:55:00;;;;;;;39.88;19.17;;;;;;;;;;6305112;28;20054;-96
2023/12/09 14:58:03;;;;;;;36.72;20.10;;;;;;;;;;6314387;28;20777;-96
2023/12/09 15:01:08;;;;;;;35.95;19.60;;;;;;;;;;6295519;28;20497;-96
2023/12/09 15:04:11;;;;;;;34.60;19.48;;;;;;;;;;6291745;28;20056;-96
2023/12/09 15:07:17;;;;;;;32.25;17.90;;;;;;;;;;6299163;28;20044;-96
2023/12/09 15:10:20;;;;;;;38.95;19.67;;;;;;;;;;6277523;28;20048;-96
2023/12/09 15:13:22;;;;;;;36.20;18.83;;;;;;;;;;6283049;28;20433;-96
2023/12/09 15:16:28;;;;;;;37.08;19.55;;;;;;;;;;6296646;28;20442;-95
2023/12/09 21:41:00;;;;;;;39.35;20.48;;;;;;;;;;6074340;29;20041;-96
2023/12/09 21:45:07;;;;;;;37.83;20.33;;;;;;;;;;6144136;28;20050;-96
